createdAt,value
2018-09-14T00:00:37.448Z,100926.37
2018-09-14T00:03:08.592Z,100929.57
2018-09-14T00:05:39.318Z,100921.31
2018-09-14T00:08:10.179Z,100921.37
2018-09-14T00:10:40.919Z,100923.33
2018-09-14T00:13:11.616Z,100921.73
2018-09-14T00:15:42.614Z,100921.45
2018-09-14T00:18:13.356Z,100920.66
2018-09-14T00:20:44.085Z,100916.81
2018-09-14T00:23:14.803Z,100912.92
2018-09-14T00:25:45.569Z,100912.30
2018-09-14T00:28:16.283Z,100914.63
2018-09-14T00:30:47.010Z,100910.36
2018-09-14T00:33:17.760Z,100909.03
2018-09-14T00:35:48.675Z,100911.67
2018-09-14T00:38:19.448Z,100908.80
2018-09-14T00:40:50.352Z,100910.22
2018-09-14T00:43:21.050Z,100902.82
2018-09-14T00:45:51.843Z,100911.77
2018-09-14T00:48:22.912Z,100907.78
2018-09-14T00:50:54.701Z,100907.36
2018-09-14T00:53:25.505Z,100910.17
2018-09-14T00:55:56.898Z,100906.32
2018-09-14T00:58:27.676Z,100903.85
2018-09-14T01:00:58.445Z,100905.69
2018-09-14T01:03:29.300Z,100903.12
2018-09-14T01:06:00.036Z,100909.19
2018-09-14T01:08:30.768Z,100902.70
2018-09-14T01:11:01.481Z,100909.36
2018-09-14T01:13:32.308Z,100907.76
2018-09-14T01:16:02.999Z,100897.28
2018-09-14T01:18:34.435Z,100900.47
2018-09-14T01:21:05.348Z,100897.03
2018-09-14T01:23:36.086Z,100896.16
2018-09-14T01:26:06.983Z,100897.16
2018-09-14T01:28:37.696Z,100892.50
2018-09-14T01:31:08.472Z,100895.66
2018-09-14T01:33:39.208Z,100890.03
2018-09-14T01:36:12.361Z,100890.94
2018-09-14T01:38:43.114Z,100888.95
2018-09-14T01:41:14.006Z,100882.36
2018-09-14T01:43:44.721Z,100883.16
2018-09-14T01:46:15.424Z,100885.09
2018-09-14T01:48:46.109Z,100883.42
2018-09-14T01:51:17.013Z,100875.29
2018-09-14T01:53:47.742Z,100878.02
2018-09-14T01:56:18.565Z,100881.63
2018-09-14T01:58:49.247Z,100883.36
2018-09-14T02:01:20.210Z,100882.36
2018-09-14T02:03:51.152Z,100869.86
2018-09-14T02:06:22.349Z,100869.70
2018-09-14T02:08:53.229Z,100873.75
2018-09-14T02:11:24.116Z,100874.30
2018-09-14T02:13:54.834Z,100870.73
2018-09-14T02:16:25.637Z,100872.72
2018-09-14T02:18:56.424Z,100874.77
2018-09-14T02:21:27.201Z,100876.54
2018-09-14T02:23:58.053Z,100877.15
2018-09-14T02:26:28.785Z,100871.59
2018-09-14T02:28:59.536Z,100870.34
2018-09-14T02:31:30.276Z,100867.44
2018-09-14T02:34:01.433Z,100870.20
2018-09-14T02:36:32.177Z,100864.13
2018-09-14T02:39:03.084Z,100870.47
2018-09-14T02:41:33.899Z,100870.56
2018-09-14T02:44:04.660Z,100864.91
2018-09-14T02:46:35.404Z,100863.69
2018-09-14T02:49:06.360Z,100857.20
2018-09-14T02:51:37.162Z,100858.13
2018-09-14T02:54:08.816Z,100859.53
2018-09-14T02:56:39.465Z,100860.97
2018-09-14T02:59:10.171Z,100863.24
2018-09-14T03:01:40.904Z,100864.20
2018-09-14T03:04:11.589Z,100862.10
2018-09-14T03:06:42.444Z,100860.91
2018-09-14T03:09:13.147Z,100858.78
2018-09-14T03:11:43.875Z,100859.31
2018-09-14T03:14:14.587Z,100856.69
2018-09-14T03:16:45.352Z,100854.03
2018-09-14T03:19:16.167Z,100854.48
2018-09-14T03:21:47.054Z,100850.53
2018-09-14T03:24:17.725Z,100848.85
2018-09-14T03:26:48.601Z,100847.59
2018-09-14T03:29:19.436Z,100855.07
2018-09-14T03:31:50.178Z,100855.13
2018-09-14T03:34:21.008Z,100854.77
2018-09-14T03:36:51.721Z,100853.96
2018-09-14T03:39:22.582Z,100851.36
2018-09-14T03:41:53.289Z,100857.09
2018-09-14T03:44:24.075Z,100857.13
2018-09-14T03:46:55.040Z,100859.76
2018-09-14T03:49:25.794Z,100860.32
2018-09-14T03:51:56.512Z,100857.55
2018-09-14T03:54:27.354Z,100856.39
2018-09-14T03:56:58.336Z,100851.39
2018-09-14T03:59:29.604Z,100857.64
2018-09-14T04:02:00.405Z,100857.91
2018-09-14T04:04:31.290Z,100853.23
2018-09-14T04:07:02.028Z,100853.80
2018-09-14T04:09:32.747Z,100853.38
2018-09-14T04:12:03.601Z,100857.77
2018-09-14T04:14:34.539Z,100858.78
2018-09-14T04:17:08.649Z,100854.90
2018-09-14T04:19:39.379Z,100853.16
2018-09-14T04:22:10.198Z,100858.06
2018-09-14T04:24:41.069Z,100852.50
2018-09-14T04:27:12.204Z,100855.24
2018-09-14T04:29:42.960Z,100851.80
2018-09-14T04:32:13.654Z,100853.14
2018-09-14T04:34:44.556Z,100851.30
2018-09-14T04:37:15.477Z,100851.38
2018-09-14T04:39:46.209Z,100852.64
2018-09-14T04:42:16.953Z,100849.70
2018-09-14T04:44:47.976Z,100850.66
2018-09-14T04:47:23.377Z,100853.78
2018-09-14T04:49:54.262Z,100850.27
2018-09-14T04:52:25.377Z,100842.77
2018-09-14T04:54:56.127Z,100847.72
2018-09-14T04:57:26.924Z,100846.09
2018-09-14T04:59:57.703Z,100844.41
2018-09-14T05:02:28.552Z,100847.47
2018-09-14T05:04:59.534Z,100848.78
2018-09-14T05:07:30.320Z,100845.78
2018-09-14T05:10:01.916Z,100847.09
2018-09-14T05:12:32.690Z,100851.73
2018-09-14T05:15:03.365Z,100849.11
2018-09-14T05:17:34.029Z,100849.95
2018-09-14T05:20:04.874Z,100849.59
2018-09-14T05:22:35.620Z,100856.16
2018-09-14T05:25:06.647Z,100857.42
2018-09-14T05:27:37.378Z,100859.97
2018-09-14T05:30:08.233Z,100860.14
2018-09-14T05:32:39.058Z,100857.87
2018-09-14T05:35:10.232Z,100858.34
2018-09-14T05:37:41.034Z,100859.66
2018-09-14T05:40:11.764Z,100866.98
2018-09-14T05:42:42.548Z,100861.41
2018-09-14T05:45:13.196Z,100862.91
2018-09-14T05:47:43.917Z,100871.36
2018-09-14T05:50:14.598Z,100868.17
2018-09-14T05:52:45.330Z,100872.96
2018-09-14T05:55:16.080Z,100879.06
2018-09-14T05:57:46.837Z,100878.73
2018-09-14T06:00:17.528Z,100875.38
2018-09-14T06:02:48.272Z,100872.98
2018-09-14T06:05:19.047Z,100874.02
2018-09-14T06:07:49.880Z,100883.80
2018-09-14T06:10:20.714Z,100880.71
2018-09-14T06:12:51.544Z,100880.43
2018-09-14T06:15:22.516Z,100883.09
2018-09-14T06:17:53.330Z,100882.55
2018-09-14T06:20:24.652Z,100877.57
2018-09-14T06:22:55.483Z,100886.98
2018-09-14T06:25:26.832Z,100886.72
2018-09-14T06:27:57.529Z,100881.61
2018-09-14T06:30:28.304Z,100881.86
2018-09-14T06:32:59.526Z,100882.69
2018-09-14T06:35:30.347Z,100883.19
2018-09-14T06:38:01.065Z,100886.77
2018-09-14T06:40:31.879Z,100880.98
2018-09-14T06:43:03.257Z,100886.15
2018-09-14T06:45:34.004Z,100889.33
2018-09-14T06:48:04.703Z,100885.56
2018-09-14T06:50:35.440Z,100892.86
2018-09-14T06:53:06.122Z,100885.41
2018-09-14T06:55:36.807Z,100890.36
2018-09-14T06:58:07.619Z,100883.89
2018-09-14T07:00:38.326Z,100884.70
2018-09-14T07:03:09.229Z,100882.92
2018-09-14T07:05:40.020Z,100880.61
2018-09-14T07:08:10.725Z,100879.38
2018-09-14T07:10:41.481Z,100876.69
2018-09-14T07:13:12.161Z,100875.36
2018-09-14T07:15:42.850Z,100877.41
2018-09-14T07:18:13.658Z,100881.68
2018-09-14T07:20:44.404Z,100878.66
2018-09-14T07:23:15.246Z,100882.77
2018-09-14T07:25:46.151Z,100890.91
2018-09-14T07:28:17.799Z,100886.12
2018-09-14T07:30:48.699Z,100887.03
2018-09-14T07:33:19.560Z,100887.59
2018-09-14T07:35:50.348Z,100890.99
2018-09-14T07:38:21.198Z,100891.34
2018-09-14T07:40:52.095Z,100900.52
2018-09-14T07:43:23.489Z,100895.08
2018-09-14T07:45:54.270Z,100898.27
2018-09-14T07:48:25.204Z,100894.70
2018-09-14T07:50:55.910Z,100891.42
2018-09-14T07:53:26.732Z,100897.58
2018-09-14T07:55:57.545Z,100902.15
2018-09-14T07:58:29.212Z,100896.91
2018-09-14T08:00:59.986Z,100896.95
2018-09-14T08:03:32.389Z,100899.88
2018-09-14T08:06:03.192Z,100894.85
2018-09-14T08:08:33.903Z,100905.20
2018-09-14T08:11:04.652Z,100895.58
2018-09-14T08:13:35.421Z,100898.42
2018-09-14T08:16:06.274Z,100898.29
2018-09-14T08:18:37.150Z,100898.20
2018-09-14T08:21:07.968Z,100899.73
2018-09-14T08:23:38.971Z,100900.66
2018-09-14T08:26:09.802Z,100895.65
2018-09-14T08:28:40.584Z,100898.75
2018-09-14T08:31:11.392Z,100905.66
2018-09-14T08:33:42.270Z,100904.97
2018-09-14T08:36:13.053Z,100900.83
2018-09-14T08:38:43.888Z,100904.23
2018-09-14T08:41:14.961Z,100907.24
2018-09-14T08:46:26.914Z,100905.45
2018-09-14T08:48:57.804Z,100902.95
2018-09-14T08:51:28.505Z,100904.14
2018-09-14T08:53:59.329Z,100909.69
2018-09-14T08:56:30.447Z,100910.51
2018-09-14T08:59:01.370Z,100904.84
2018-09-14T09:01:32.367Z,100909.67
2018-09-14T09:04:03.634Z,100904.39
2018-09-14T09:06:34.362Z,100911.19
2018-09-14T09:09:08.580Z,100910.73
2018-09-14T09:11:39.710Z,100909.98
2018-09-14T09:14:10.549Z,100916.17
2018-09-14T09:16:41.553Z,100912.50
2018-09-14T09:19:12.308Z,100909.64
2018-09-14T09:21:43.056Z,100919.50
2018-09-14T09:24:13.847Z,100912.98
2018-09-14T09:26:44.807Z,100908.52
2018-09-14T09:29:16.725Z,100906.12
2018-09-14T09:31:47.992Z,100910.95
2018-09-14T09:34:18.754Z,100906.61
2018-09-14T09:36:49.992Z,100906.47
2018-09-14T09:39:20.924Z,100908.23
2018-09-14T09:41:51.832Z,100901.88
2018-09-14T09:44:22.579Z,100901.91
2018-09-14T09:46:53.493Z,100903.34
2018-09-14T09:49:24.469Z,100896.97
2018-09-14T09:51:55.281Z,100903.20
2018-09-14T09:54:26.042Z,100895.84
2018-09-14T09:56:56.810Z,100893.10
2018-09-14T09:59:27.662Z,100892.80
2018-09-14T10:02:03.448Z,100892.89
2018-09-14T10:04:52.417Z,100896.39
2018-09-14T10:10:33.444Z,100893.02
2018-09-14T10:16:08.678Z,100886.45
2018-09-14T10:18:45.910Z,100888.58
2018-09-14T10:21:43.598Z,100891.73
2018-09-14T10:24:14.548Z,100895.28
2018-09-14T10:26:46.270Z,100888.51
2018-09-14T10:29:17.067Z,100882.07
2018-09-14T10:31:48.205Z,100893.97
2018-09-14T10:34:20.378Z,100890.53
2018-09-14T10:36:53.307Z,100887.23
2018-09-14T10:39:30.443Z,100881.69
2018-09-14T10:42:01.405Z,100875.02
2018-09-14T10:44:33.060Z,100872.75
2018-09-14T10:47:10.446Z,100879.41
2018-09-14T10:49:47.850Z,100880.32
2018-09-14T10:52:18.697Z,100877.64
2018-09-14T10:54:49.488Z,100868.83
2018-09-14T10:57:20.359Z,100868.13
2018-09-14T10:59:52.044Z,100863.27
2018-09-14T11:02:24.322Z,100866.20
2018-09-14T11:04:55.250Z,100875.83
2018-09-14T11:07:26.055Z,100863.03
2018-09-14T11:09:57.854Z,100863.62
2018-09-14T11:12:29.037Z,100857.98
2018-09-14T11:14:59.959Z,100855.59
2018-09-14T11:17:30.983Z,100854.34
2018-09-14T11:20:01.856Z,100856.05
2018-09-14T11:22:32.665Z,100854.23
2018-09-14T11:25:03.553Z,100851.11
2018-09-14T11:27:34.467Z,100848.33
2018-09-14T11:30:06.134Z,100843.95
2018-09-14T11:32:36.856Z,100845.11
2018-09-14T11:35:07.619Z,100836.94
2018-09-14T11:37:38.310Z,100841.23
2018-09-14T11:40:09.100Z,100843.45
2018-09-14T11:42:39.809Z,100840.28
2018-09-14T11:45:10.647Z,100838.45
2018-09-14T11:47:41.361Z,100843.05
2018-09-14T11:50:12.207Z,100829.41
2018-09-14T11:52:42.916Z,100828.45
2018-09-14T11:55:13.647Z,100825.15
2018-09-14T11:57:44.308Z,100819.92
2018-09-14T12:00:15.231Z,100821.67
2018-09-14T12:02:45.965Z,100814.91
2018-09-14T12:05:16.718Z,100810.10
2018-09-14T12:07:47.417Z,100802.15
2018-09-14T12:10:18.343Z,100805.73
2018-09-14T12:12:49.001Z,100808.00
2018-09-14T12:15:19.737Z,100806.69
2018-09-14T12:17:50.425Z,100804.38
2018-09-14T12:20:21.125Z,100806.27
2018-09-14T12:22:51.788Z,100790.23
2018-09-14T12:25:22.528Z,100795.05
2018-09-14T12:27:53.277Z,100789.03
2018-09-14T12:30:24.054Z,100783.55
2018-09-14T12:32:54.995Z,100787.84
2018-09-14T12:35:25.765Z,100783.03
2018-09-14T12:37:56.597Z,100784.42
2018-09-14T12:40:27.347Z,100779.82
2018-09-14T12:42:58.338Z,100781.34
2018-09-14T12:45:29.225Z,100782.09
2018-09-14T12:48:00.015Z,100788.11
2018-09-14T12:50:30.762Z,100781.02
2018-09-14T12:53:01.766Z,100775.30
2018-09-14T12:55:32.496Z,100772.01
2018-09-14T12:58:03.232Z,100771.56
2018-09-14T13:00:33.886Z,100776.06
2018-09-14T13:03:04.631Z,100769.70
2018-09-14T13:05:35.341Z,100768.84
2018-09-14T13:08:06.064Z,100764.47
2018-09-14T13:10:36.772Z,100758.67
2018-09-14T13:13:07.588Z,100756.13
2018-09-14T13:15:38.240Z,100763.84
2018-09-14T13:18:09.048Z,100761.52
2018-09-14T13:20:39.735Z,100760.16
2018-09-14T13:23:10.446Z,100763.41
2018-09-14T13:25:41.171Z,100758.45
2018-09-14T13:28:11.900Z,100755.03
2018-09-14T13:30:42.639Z,100751.11
2018-09-14T13:33:13.455Z,100747.97
2018-09-14T13:35:44.153Z,100746.34
2018-09-14T13:38:14.933Z,100749.00
2018-09-14T13:40:45.650Z,100742.69
2018-09-14T13:43:16.360Z,100740.83
2018-09-14T13:45:47.090Z,100742.89
2018-09-14T13:48:17.842Z,100745.66
2018-09-14T13:50:48.695Z,100747.60
2018-09-14T13:53:19.617Z,100745.28
2018-09-14T13:55:51.025Z,100747.43
2018-09-14T13:58:22.843Z,100746.91
2018-09-14T14:00:53.574Z,100740.04
2018-09-14T14:03:24.281Z,100732.28
2018-09-14T14:05:55.562Z,100742.13
2018-09-14T14:08:28.835Z,100743.66
2018-09-14T14:11:00.879Z,100746.08
2018-09-14T14:13:36.147Z,100746.28
2018-09-14T14:16:07.145Z,100731.63
2018-09-14T14:18:38.026Z,100733.05
2018-09-14T14:21:09.797Z,100721.59
2018-09-14T14:23:40.572Z,100722.28
2018-09-14T14:26:12.094Z,100724.07
2018-09-14T14:28:42.880Z,100723.47
2018-09-14T14:31:13.546Z,100715.86
2018-09-14T14:33:44.268Z,100715.01
2018-09-14T14:36:15.660Z,100718.22
2018-09-14T14:38:46.992Z,100711.47
2018-09-14T14:41:17.750Z,100705.97
2018-09-14T14:43:48.561Z,100705.97
2018-09-14T14:46:19.323Z,100704.87
2018-09-14T14:51:19.456Z,100705.66
2018-09-14T14:53:50.212Z,100707.14
2018-09-14T14:56:21.009Z,100712.45
2018-09-14T14:58:51.692Z,100709.33
2018-09-14T15:01:23.171Z,100703.03
2018-09-14T15:03:54.008Z,100700.88
2018-09-14T15:06:24.805Z,100698.88
2018-09-14T15:08:55.599Z,100704.02
2018-09-14T15:11:26.319Z,100699.52
2018-09-14T15:13:57.127Z,100697.72
2018-09-14T15:16:27.908Z,100690.23
2018-09-14T15:18:58.611Z,100699.09
2018-09-14T15:21:29.288Z,100694.61
2018-09-14T15:24:00.008Z,100690.87
2018-09-14T15:26:30.711Z,100692.34
2018-09-14T15:29:01.343Z,100693.58
2018-09-14T15:31:32.041Z,100695.78
2018-09-14T15:34:02.800Z,100688.42
2018-09-14T15:36:33.506Z,100692.23
2018-09-14T15:39:06.201Z,100690.41
2018-09-14T15:41:37.089Z,100692.09
2018-09-14T15:44:08.034Z,100692.88
2018-09-14T15:46:38.743Z,100695.94
2018-09-14T15:49:09.490Z,100705.42
2018-09-14T15:51:40.262Z,100697.35
2018-09-14T15:54:10.943Z,100698.71
2018-09-14T15:56:41.659Z,100696.98
2018-09-14T15:59:12.309Z,100697.77
2018-09-14T16:01:42.965Z,100699.17
2018-09-14T16:04:14.192Z,100699.56
2018-09-14T16:06:44.925Z,100711.00
2018-09-14T16:09:15.556Z,100704.38
2018-09-14T16:11:46.409Z,100700.08
2018-09-14T16:14:17.209Z,100701.21
2018-09-14T16:16:48.010Z,100700.48
2018-09-14T16:19:20.246Z,100709.97
2018-09-14T16:21:50.902Z,100713.12
2018-09-14T16:24:21.711Z,100709.27
2018-09-14T16:26:52.513Z,100714.64
2018-09-14T16:29:23.178Z,100720.00
2018-09-14T16:31:53.975Z,100725.49
2018-09-14T16:34:24.602Z,100722.20
2018-09-14T16:36:55.361Z,100716.23
2018-09-14T16:39:26.044Z,100720.98
2018-09-14T16:41:56.750Z,100727.77
2018-09-14T16:44:27.470Z,100722.43
2018-09-14T16:46:58.167Z,100717.75
2018-09-14T16:49:28.862Z,100714.66
2018-09-14T16:51:59.612Z,100713.55
2018-09-14T16:54:30.283Z,100710.33
2018-09-14T16:57:01.003Z,100711.07
2018-09-14T16:59:31.698Z,100716.05
2018-09-14T17:02:02.379Z,100714.45
2018-09-14T17:04:33.092Z,100716.41
2018-09-14T17:07:03.752Z,100710.55
2018-09-14T17:09:34.537Z,100709.80
2018-09-14T17:12:05.386Z,100709.66
2018-09-14T17:14:36.190Z,100708.30
2018-09-14T17:17:06.962Z,100709.38
2018-09-14T17:19:47.277Z,100711.75
2018-09-14T17:22:20.643Z,100714.64
2018-09-14T17:24:52.769Z,100712.44
2018-09-14T17:27:24.976Z,100714.11
2018-09-14T17:29:56.528Z,100719.38
2018-09-14T17:32:30.012Z,100713.91
2018-09-14T17:35:02.288Z,100717.38
2018-09-14T17:37:34.130Z,100719.66
2018-09-14T17:40:05.003Z,100721.84
2018-09-14T17:42:36.487Z,100729.54
2018-09-14T17:45:07.482Z,100723.44
2018-09-14T17:47:40.576Z,100723.51
2018-09-14T17:50:12.092Z,100718.23
2018-09-14T17:52:43.053Z,100715.89
2018-09-14T17:55:14.486Z,100718.03
2018-09-14T17:57:47.167Z,100724.35
2018-09-14T18:00:19.805Z,100724.29
2018-09-14T18:02:52.395Z,100732.80
2018-09-14T18:05:23.524Z,100727.33
2018-09-14T18:07:55.742Z,100727.06
2018-09-14T18:10:26.490Z,100728.56
2018-09-14T18:12:58.891Z,100733.31
2018-09-14T18:15:31.565Z,100731.28
2018-09-14T18:18:06.650Z,100734.86
2018-09-14T18:20:39.704Z,100740.78
2018-09-14T18:23:11.115Z,100738.97
2018-09-14T18:25:42.320Z,100736.73
2018-09-14T18:28:20.601Z,100742.97
2018-09-14T18:30:51.856Z,100744.92
2018-09-14T18:33:24.086Z,100751.61
2018-09-14T18:35:55.025Z,100751.53
2018-09-14T18:38:26.225Z,100756.70
2018-09-14T18:40:57.283Z,100757.58
2018-09-14T18:43:30.069Z,100751.89
2018-09-14T18:46:00.845Z,100748.83
2018-09-14T18:48:31.595Z,100754.69
2018-09-14T18:51:02.823Z,100753.35
2018-09-14T18:53:33.600Z,100761.44
2018-09-14T18:56:04.395Z,100756.63
2018-09-14T18:58:35.150Z,100752.07
2018-09-14T19:01:05.940Z,100761.23
2018-09-14T19:03:36.713Z,100760.88
2018-09-14T19:06:07.624Z,100760.49
2018-09-14T19:08:38.418Z,100759.95
2018-09-14T19:11:09.228Z,100760.31
2018-09-14T19:13:39.964Z,100768.80
2018-09-14T19:16:12.631Z,100770.13
2018-09-14T19:18:45.231Z,100766.53
2018-09-14T19:21:16.017Z,100771.84
2018-09-14T19:23:46.712Z,100768.20
2018-09-14T19:26:17.487Z,100773.31
2018-09-14T19:28:48.239Z,100783.40
2018-09-14T19:31:19.089Z,100781.59
2018-09-14T19:33:50.929Z,100785.92
2018-09-14T19:36:22.026Z,100787.56
2018-09-14T19:38:52.831Z,100785.38
2018-09-14T19:41:28.162Z,100775.30
2018-09-14T19:43:58.919Z,100778.43
2018-09-14T19:46:29.723Z,100779.00
2018-09-14T19:49:00.832Z,100780.97
2018-09-14T19:51:32.848Z,100779.84
2018-09-14T19:54:09.252Z,100769.48
2018-09-14T19:56:40.049Z,100774.67
2018-09-14T19:59:10.721Z,100767.47
2018-09-14T20:01:42.385Z,100768.58
2018-09-14T20:04:13.129Z,100763.76
2018-09-14T20:06:43.815Z,100765.06
2018-09-14T20:09:15.569Z,100770.74
2018-09-14T20:12:00.048Z,100775.00
2018-09-14T20:14:31.341Z,100777.98
2018-09-14T20:17:02.077Z,100786.72
2018-09-14T20:19:32.771Z,100784.39
2018-09-14T20:22:06.087Z,100787.61
2018-09-14T20:24:37.603Z,100786.69
2018-09-14T20:27:08.416Z,100792.46
2018-09-14T20:29:39.082Z,100793.48
2018-09-14T20:32:11.609Z,100784.59
2018-09-14T20:34:42.452Z,100782.40
2018-09-14T20:37:16.043Z,100784.03
2018-09-14T20:39:46.947Z,100782.14
2018-09-14T20:42:17.700Z,100784.33
2018-09-14T20:44:48.428Z,100785.92
2018-09-14T20:47:19.290Z,100786.72
2018-09-14T20:49:50.008Z,100782.53
2018-09-14T20:52:21.297Z,100779.31
2018-09-14T20:54:51.994Z,100786.98
2018-09-14T20:57:22.808Z,100791.84
2018-09-14T20:59:53.452Z,100795.82
2018-09-14T21:02:24.228Z,100797.55
2018-09-14T21:04:56.748Z,100799.34
2018-09-14T21:07:27.596Z,100803.23
2018-09-14T21:09:58.402Z,100801.43
2018-09-14T21:12:29.164Z,100804.75
2018-09-14T21:14:59.854Z,100807.91
2018-09-14T21:17:30.685Z,100813.79
2018-09-14T21:20:01.429Z,100810.27
2018-09-14T21:22:32.196Z,100809.86
2018-09-14T21:25:03.224Z,100817.47
2018-09-14T21:27:34.001Z,100819.73
2018-09-14T21:30:06.118Z,100817.97
2018-09-14T21:32:37.739Z,100814.85
2018-09-14T21:35:08.527Z,100821.82
2018-09-14T21:37:39.269Z,100824.28
2018-09-14T21:40:10.049Z,100831.48
2018-09-14T21:42:40.837Z,100828.82
2018-09-14T21:45:11.564Z,100833.20
2018-09-14T21:47:42.328Z,100833.11
2018-09-14T21:50:12.977Z,100837.19
2018-09-14T21:52:43.702Z,100836.06
2018-09-14T21:55:14.428Z,100838.33
2018-09-14T21:57:45.147Z,100837.86
2018-09-14T22:00:21.021Z,100837.20
2018-09-14T22:02:51.780Z,100841.75
2018-09-14T22:05:22.652Z,100839.95
2018-09-14T22:07:53.428Z,100841.78
2018-09-14T22:10:24.208Z,100842.52
2018-09-14T22:12:54.945Z,100845.10
2018-09-14T22:15:25.741Z,100840.36
2018-09-14T22:17:56.460Z,100850.98
2018-09-14T22:20:27.215Z,100851.34
2018-09-14T22:22:57.964Z,100851.25
2018-09-14T22:25:28.673Z,100852.67
2018-09-14T22:27:59.455Z,100845.56
2018-09-14T22:30:30.134Z,100851.81
2018-09-14T22:33:00.905Z,100844.03
2018-09-14T22:35:31.646Z,100844.97
2018-09-14T22:38:02.439Z,100842.66
2018-09-14T22:40:33.228Z,100846.52
2018-09-14T22:43:04.299Z,100847.73
2018-09-14T22:45:35.076Z,100860.23
2018-09-14T22:48:05.828Z,100847.19
2018-09-14T22:50:36.841Z,100850.40
2018-09-14T22:53:07.620Z,100847.04
2018-09-14T22:55:38.358Z,100844.58
2018-09-14T22:58:09.263Z,100846.25
2018-09-14T23:00:45.145Z,100843.05
2018-09-14T23:03:15.940Z,100842.53
2018-09-14T23:05:46.617Z,100849.91
2018-09-14T23:08:17.359Z,100849.39
2018-09-14T23:10:48.046Z,100845.34
2018-09-14T23:13:18.867Z,100852.01
2018-09-14T23:15:59.964Z,100852.07
2018-09-14T23:18:31.632Z,100853.67
2018-09-14T23:21:02.697Z,100865.53
2018-09-14T23:23:33.524Z,100865.17
2018-09-14T23:26:09.421Z,100862.86
2018-09-14T23:28:40.107Z,100861.27
2018-09-14T23:31:10.780Z,100865.98
2018-09-14T23:33:41.472Z,100869.47
2018-09-14T23:36:12.212Z,100878.26
2018-09-14T23:38:42.911Z,100871.55
2018-09-14T23:41:13.674Z,100874.28
2018-09-14T23:43:44.786Z,100869.53
2018-09-14T23:46:15.575Z,100873.96
2018-09-14T23:48:46.285Z,100872.00
2018-09-14T23:51:16.996Z,100869.27
2018-09-14T23:53:47.723Z,100870.98
2018-09-14T23:56:18.484Z,100876.11
2018-09-14T23:58:49.246Z,100874.00
